sensor_id;sensor_type;location;lat;lon;timestamp;P1;durP1;ratioP1;P2;durP2;ratioP2
36989;SDS011;22898;52.102;5.776;2023-07-31T00:00:13;0.35;;;0.35;;
36989;SDS011;22898;52.102;5.776;2023-07-31T00:02:39;0.30;;;0.30;;
36989;SDS011;22898;52.102;5.776;2023-07-31T00:05:05;0.30;;;0.30;;
36989;SDS011;22898;52.102;5.776;2023-07-31T00:07:31;0.40;;;0.40;;
36989;SDS011;22898;52.102;5.776;2023-07-31T00:09:57;0.30;;;0.30;;
36989;SDS011;22898;52.102;5.776;2023-07-31T00:12:23;0.35;;;0.35;;
36989;SDS011;22898;52.102;5.776;2023-07-31T00:14:48;0.65;;;0.50;;
36989;SDS011;22898;52.102;5.776;2023-07-31T00:17:14;0.30;;;0.30;;
36989;SDS011;22898;52.102;5.776;2023-07-31T00:19:42;0.30;;;0.30;;
36989;SDS011;22898;52.102;5.776;2023-07-31T00:22:08;0.60;;;0.60;;
36989;SDS011;22898;52.102;5.776;2023-07-31T00:24:33;0.52;;;0.40;;
36989;SDS011;22898;52.102;5.776;2023-07-31T00:26:59;0.40;;;0.40;;
36989;SDS011;22898;52.102;5.776;2023-07-31T00:29:24;0.38;;;0.35;;
36989;SDS011;22898;52.102;5.776;2023-07-31T00:31:50;0.35;;;0.35;;
36989;SDS011;22898;52.102;5.776;2023-07-31T00:34:15;0.50;;;0.43;;
36989;SDS011;22898;52.102;5.776;2023-07-31T00:36:41;0.30;;;0.30;;
36989;SDS011;22898;52.102;5.776;2023-07-31T00:39:06;0.38;;;0.38;;
36989;SDS011;22898;52.102;5.776;2023-07-31T00:41:32;0.40;;;0.40;;
36989;SDS011;22898;52.102;5.776;2023-07-31T00:43:58;0.30;;;0.30;;
36989;SDS011;22898;52.102;5.776;2023-07-31T00:46:23;3.30;;;0.52;;
36989;SDS011;22898;52.102;5.776;2023-07-31T00:48:49;0.50;;;0.50;;
36989;SDS011;22898;52.102;5.776;2023-07-31T00:51:14;0.65;;;0.65;;
36989;SDS011;22898;52.102;5.776;2023-07-31T00:53:40;2.42;;;0.90;;
36989;SDS011;22898;52.102;5.776;2023-07-31T00:56:07;1.67;;;0.85;;
36989;SDS011;22898;52.102;5.776;2023-07-31T00:58:33;0.68;;;0.60;;
36989;SDS011;22898;52.102;5.776;2023-07-31T01:00:59;1.35;;;0.90;;
36989;SDS011;22898;52.102;5.776;2023-07-31T01:03:25;3.85;;;1.45;;
36989;SDS011;22898;52.102;5.776;2023-07-31T01:05:56;2.40;;;1.25;;
36989;SDS011;22898;52.102;5.776;2023-07-31T01:09:16;4.50;;;1.75;;
36989;SDS011;22898;52.102;5.776;2023-07-31T01:11:37;5.88;;;1.90;;
36989;SDS011;22898;52.102;5.776;2023-07-31T01:14:08;4.63;;;2.15;;
36989;SDS011;22898;52.102;5.776;2023-07-31T01:16:33;4.15;;;1.65;;
36989;SDS011;22898;52.102;5.776;2023-07-31T01:18:59;9.15;;;3.15;;
36989;SDS011;22898;52.102;5.776;2023-07-31T01:24:19;4.72;;;2.63;;
36989;SDS011;22898;52.102;5.776;2023-07-31T01:26:49;2.53;;;2.20;;
36989;SDS011;22898;52.102;5.776;2023-07-31T01:29:36;4.32;;;1.95;;
36989;SDS011;22898;52.102;5.776;2023-07-31T01:32:06;4.43;;;1.90;;
36989;SDS011;22898;52.102;5.776;2023-07-31T01:34:33;4.65;;;2.85;;
36989;SDS011;22898;52.102;5.776;2023-07-31T01:37:00;7.68;;;2.67;;
36989;SDS011;22898;52.102;5.776;2023-07-31T01:39:26;3.20;;;2.33;;
36989;SDS011;22898;52.102;5.776;2023-07-31T01:41:51;3.03;;;1.90;;
36989;SDS011;22898;52.102;5.776;2023-07-31T01:44:17;4.88;;;2.20;;
36989;SDS011;22898;52.102;5.776;2023-07-31T01:46:42;5.60;;;2.13;;
36989;SDS011;22898;52.102;5.776;2023-07-31T01:49:08;4.05;;;2.15;;
36989;SDS011;22898;52.102;5.776;2023-07-31T01:51:33;7.07;;;2.55;;
36989;SDS011;22898;52.102;5.776;2023-07-31T01:54:00;5.10;;;2.40;;
36989;SDS011;22898;52.102;5.776;2023-07-31T01:56:26;5.93;;;2.75;;
36989;SDS011;22898;52.102;5.776;2023-07-31T01:58:51;3.75;;;1.88;;
36989;SDS011;22898;52.102;5.776;2023-07-31T02:01:17;7.45;;;2.45;;
36989;SDS011;22898;52.102;5.776;2023-07-31T02:03:42;2.25;;;1.67;;
36989;SDS011;22898;52.102;5.776;2023-07-31T02:06:08;4.15;;;2.28;;
36989;SDS011;22898;52.102;5.776;2023-07-31T02:08:33;4.75;;;2.28;;
36989;SDS011;22898;52.102;5.776;2023-07-31T02:10:59;2.38;;;1.73;;
36989;SDS011;22898;52.102;5.776;2023-07-31T02:13:24;2.40;;;1.23;;
36989;SDS011;22898;52.102;5.776;2023-07-31T02:15:50;4.35;;;2.03;;
36989;SDS011;22898;52.102;5.776;2023-07-31T02:18:16;1.38;;;1.10;;
36989;SDS011;22898;52.102;5.776;2023-07-31T02:20:41;1.60;;;1.08;;
36989;SDS011;22898;52.102;5.776;2023-07-31T02:23:07;2.55;;;1.65;;
36989;SDS011;22898;52.102;5.776;2023-07-31T02:25:32;1.75;;;1.42;;
36989;SDS011;22898;52.102;5.776;2023-07-31T02:27:58;5.75;;;1.98;;
36989;SDS011;22898;52.102;5.776;2023-07-31T02:30:24;3.05;;;1.80;;
36989;SDS011;22898;52.102;5.776;2023-07-31T02:32:49;2.40;;;1.15;;
36989;SDS011;22898;52.102;5.776;2023-07-31T02:35:15;5.45;;;2.45;;
36989;SDS011;22898;52.102;5.776;2023-07-31T02:37:41;1.17;;;1.00;;
36989;SDS011;22898;52.102;5.776;2023-07-31T02:40:08;4.38;;;1.48;;
36989;SDS011;22898;52.102;5.776;2023-07-31T02:42:33;6.55;;;3.05;;
36989;SDS011;22898;52.102;5.776;2023-07-31T02:44:59;4.00;;;2.15;;
36989;SDS011;22898;52.102;5.776;2023-07-31T02:47:25;2.88;;;1.60;;
36989;SDS011;22898;52.102;5.776;2023-07-31T02:49:50;3.40;;;1.65;;
36989;SDS011;22898;52.102;5.776;2023-07-31T02:52:16;3.67;;;1.27;;
36989;SDS011;22898;52.102;5.776;2023-07-31T02:54:41;9.10;;;1.90;;
36989;SDS011;22898;52.102;5.776;2023-07-31T02:57:07;1.80;;;1.38;;
36989;SDS011;22898;52.102;5.776;2023-07-31T02:59:32;2.75;;;1.52;;
36989;SDS011;22898;52.102;5.776;2023-07-31T03:01:58;3.33;;;1.67;;
36989;SDS011;22898;52.102;5.776;2023-07-31T03:04:23;9.88;;;2.38;;
36989;SDS011;22898;52.102;5.776;2023-07-31T03:06:49;6.63;;;2.53;;
36989;SDS011;22898;52.102;5.776;2023-07-31T03:09:15;5.07;;;2.40;;
36989;SDS011;22898;52.102;5.776;2023-07-31T03:11:40;6.05;;;2.00;;
36989;SDS011;22898;52.102;5.776;2023-07-31T03:14:06;4.03;;;2.63;;
36989;SDS011;22898;52.102;5.776;2023-07-31T03:16:31;5.78;;;2.08;;
36989;SDS011;22898;52.102;5.776;2023-07-31T03:18:57;5.10;;;2.50;;
36989;SDS011;22898;52.102;5.776;2023-07-31T03:21:23;8.57;;;2.95;;
36989;SDS011;22898;52.102;5.776;2023-07-31T03:23:48;5.88;;;1.88;;
36989;SDS011;22898;52.102;5.776;2023-07-31T03:26:14;9.82;;;2.58;;
36989;SDS011;22898;52.102;5.776;2023-07-31T03:28:39;7.95;;;1.75;;
36989;SDS011;22898;52.102;5.776;2023-07-31T03:31:05;5.13;;;2.50;;
36989;SDS011;22898;52.102;5.776;2023-07-31T03:33:30;4.07;;;2.45;;
36989;SDS011;22898;52.102;5.776;2023-07-31T03:35:56;6.32;;;2.67;;
36989;SDS011;22898;52.102;5.776;2023-07-31T03:38:22;8.85;;;3.75;;
36989;SDS011;22898;52.102;5.776;2023-07-31T03:40:48;3.35;;;1.80;;
36989;SDS011;22898;52.102;5.776;2023-07-31T03:43:13;6.80;;;1.83;;
36989;SDS011;22898;52.102;5.776;2023-07-31T03:45:39;3.70;;;1.95;;
36989;SDS011;22898;52.102;5.776;2023-07-31T03:48:05;3.78;;;2.25;;
36989;SDS011;22898;52.102;5.776;2023-07-31T03:50:32;8.07;;;2.53;;
36989;SDS011;22898;52.102;5.776;2023-07-31T03:52:58;21.63;;;3.95;;
36989;SDS011;22898;52.102;5.776;2023-07-31T03:55:23;3.85;;;1.98;;
36989;SDS011;22898;52.102;5.776;2023-07-31T03:57:49;3.33;;;1.60;;
36989;SDS011;22898;52.102;5.776;2023-07-31T04:00:14;3.85;;;1.73;;
36989;SDS011;22898;52.102;5.776;2023-07-31T04:02:40;8.27;;;2.15;;
36989;SDS011;22898;52.102;5.776;2023-07-31T04:05:06;4.75;;;2.28;;
36989;SDS011;22898;52.102;5.776;2023-07-31T04:07:32;4.68;;;2.17;;
36989;SDS011;22898;52.102;5.776;2023-07-31T04:09:57;4.65;;;1.90;;
36989;SDS011;22898;52.102;5.776;2023-07-31T04:12:23;2.72;;;1.70;;
36989;SDS011;22898;52.102;5.776;2023-07-31T04:14:49;13.93;;;2.95;;
36989;SDS011;22898;52.102;5.776;2023-07-31T04:17:15;5.13;;;1.90;;
36989;SDS011;22898;52.102;5.776;2023-07-31T04:19:42;3.10;;;1.58;;
36989;SDS011;22898;52.102;5.776;2023-07-31T04:22:07;11.70;;;1.98;;
36989;SDS011;22898;52.102;5.776;2023-07-31T04:24:33;4.22;;;2.03;;
36989;SDS011;22898;52.102;5.776;2023-07-31T04:26:58;7.38;;;2.45;;
36989;SDS011;22898;52.102;5.776;2023-07-31T04:29:24;9.38;;;3.10;;
36989;SDS011;22898;52.102;5.776;2023-07-31T04:31:49;3.70;;;1.88;;
36989;SDS011;22898;52.102;5.776;2023-07-31T04:34:15;4.60;;;1.90;;
36989;SDS011;22898;52.102;5.776;2023-07-31T04:36:40;7.13;;;2.47;;
36989;SDS011;22898;52.102;5.776;2023-07-31T04:39:06;7.30;;;2.08;;
36989;SDS011;22898;52.102;5.776;2023-07-31T04:41:32;9.70;;;2.47;;
36989;SDS011;22898;52.102;5.776;2023-07-31T04:43:57;3.80;;;2.45;;
36989;SDS011;22898;52.102;5.776;2023-07-31T04:46:23;2.58;;;1.63;;
36989;SDS011;22898;52.102;5.776;2023-07-31T04:48:48;5.72;;;2.47;;
36989;SDS011;22898;52.102;5.776;2023-07-31T04:51:14;1.88;;;1.40;;
36989;SDS011;22898;52.102;5.776;2023-07-31T04:53:39;2.97;;;2.13;;
36989;SDS011;22898;52.102;5.776;2023-07-31T04:56:05;3.30;;;1.30;;
36989;SDS011;22898;52.102;5.776;2023-07-31T04:58:31;4.03;;;1.90;;
36989;SDS011;22898;52.102;5.776;2023-07-31T05:00:56;4.63;;;1.67;;
36989;SDS011;22898;52.102;5.776;2023-07-31T05:03:22;6.10;;;1.80;;
36989;SDS011;22898;52.102;5.776;2023-07-31T05:05:47;3.25;;;1.80;;
36989;SDS011;22898;52.102;5.776;2023-07-31T05:08:13;2.55;;;1.65;;
36989;SDS011;22898;52.102;5.776;2023-07-31T05:10:38;3.58;;;1.88;;
36989;SDS011;22898;52.102;5.776;2023-07-31T05:13:04;3.88;;;2.25;;
36989;SDS011;22898;52.102;5.776;2023-07-31T05:15:30;7.47;;;2.10;;
36989;SDS011;22898;52.102;5.776;2023-07-31T05:17:55;8.10;;;1.92;;
36989;SDS011;22898;52.102;5.776;2023-07-31T05:20:21;2.63;;;1.67;;
36989;SDS011;22898;52.102;5.776;2023-07-31T05:22:47;3.30;;;2.38;;
36989;SDS011;22898;52.102;5.776;2023-07-31T05:25:12;4.00;;;1.45;;
36989;SDS011;22898;52.102;5.776;2023-07-31T05:27:38;4.45;;;2.67;;
36989;SDS011;22898;52.102;5.776;2023-07-31T05:30:04;6.45;;;2.13;;
36989;SDS011;22898;52.102;5.776;2023-07-31T05:32:30;3.88;;;2.10;;
36989;SDS011;22898;52.102;5.776;2023-07-31T05:34:55;6.90;;;2.17;;
36989;SDS011;22898;52.102;5.776;2023-07-31T05:37:21;1.73;;;1.50;;
36989;SDS011;22898;52.102;5.776;2023-07-31T05:39:47;7.28;;;1.73;;
36989;SDS011;22898;52.102;5.776;2023-07-31T05:42:13;4.47;;;1.83;;
36989;SDS011;22898;52.102;5.776;2023-07-31T05:44:38;2.83;;;1.63;;
36989;SDS011;22898;52.102;5.776;2023-07-31T05:47:04;3.53;;;1.35;;
36989;SDS011;22898;52.102;5.776;2023-07-31T05:49:30;3.42;;;1.85;;
36989;SDS011;22898;52.102;5.776;2023-07-31T05:51:55;4.97;;;1.67;;
36989;SDS011;22898;52.102;5.776;2023-07-31T05:54:21;6.38;;;1.80;;
36989;SDS011;22898;52.102;5.776;2023-07-31T05:56:46;7.05;;;2.00;;
36989;SDS011;22898;52.102;5.776;2023-07-31T05:59:12;5.32;;;1.80;;
36989;SDS011;22898;52.102;5.776;2023-07-31T06:01:38;2.58;;;1.90;;
36989;SDS011;22898;52.102;5.776;2023-07-31T06:04:04;3.20;;;1.42;;
36989;SDS011;22898;52.102;5.776;2023-07-31T06:06:30;2.10;;;1.45;;
36989;SDS011;22898;52.102;5.776;2023-07-31T06:08:56;3.63;;;1.55;;
36989;SDS011;22898;52.102;5.776;2023-07-31T06:11:21;4.13;;;2.33;;
36989;SDS011;22898;52.102;5.776;2023-07-31T06:13:47;3.75;;;1.20;;
36989;SDS011;22898;52.102;5.776;2023-07-31T06:16:14;2.28;;;1.70;;
36989;SDS011;22898;52.102;5.776;2023-07-31T06:18:40;2.83;;;1.50;;
36989;SDS011;22898;52.102;5.776;2023-07-31T06:21:06;2.22;;;1.02;;
36989;SDS011;22898;52.102;5.776;2023-07-31T06:23:32;2.67;;;1.23;;
36989;SDS011;22898;52.102;5.776;2023-07-31T06:25:58;4.32;;;1.67;;
36989;SDS011;22898;52.102;5.776;2023-07-31T06:28:27;1.67;;;1.00;;
36989;SDS011;22898;52.102;5.776;2023-07-31T06:30:59;2.97;;;1.20;;
36989;SDS011;22898;52.102;5.776;2023-07-31T06:33:26;4.63;;;2.13;;
36989;SDS011;22898;52.102;5.776;2023-07-31T06:35:52;1.05;;;0.80;;
36989;SDS011;22898;52.102;5.776;2023-07-31T06:38:22;5.80;;;1.73;;
36989;SDS011;22898;52.102;5.776;2023-07-31T06:40:50;3.08;;;1.17;;
36989;SDS011;22898;52.102;5.776;2023-07-31T06:43:15;2.55;;;1.77;;
36989;SDS011;22898;52.102;5.776;2023-07-31T06:45:41;4.00;;;1.10;;
36989;SDS011;22898;52.102;5.776;2023-07-31T06:48:06;2.65;;;0.75;;
36989;SDS011;22898;52.102;5.776;2023-07-31T06:50:32;1.58;;;0.98;;
36989;SDS011;22898;52.102;5.776;2023-07-31T06:52:58;3.22;;;1.23;;
36989;SDS011;22898;52.102;5.776;2023-07-31T06:55:24;0.85;;;0.85;;
36989;SDS011;22898;52.102;5.776;2023-07-31T06:57:50;0.50;;;0.50;;
36989;SDS011;22898;52.102;5.776;2023-07-31T07:00:18;1.13;;;1.02;;
36989;SDS011;22898;52.102;5.776;2023-07-31T07:02:44;1.08;;;0.80;;
36989;SDS011;22898;52.102;5.776;2023-07-31T07:05:12;0.68;;;0.68;;
36989;SDS011;22898;52.102;5.776;2023-07-31T07:07:38;1.27;;;0.60;;
36989;SDS011;22898;52.102;5.776;2023-07-31T07:10:04;3.55;;;1.63;;
36989;SDS011;22898;52.102;5.776;2023-07-31T07:12:30;0.60;;;0.60;;
36989;SDS011;22898;52.102;5.776;2023-07-31T07:14:56;1.15;;;1.05;;
36989;SDS011;22898;52.102;5.776;2023-07-31T07:17:22;1.13;;;1.08;;
36989;SDS011;22898;52.102;5.776;2023-07-31T07:19:48;2.30;;;1.65;;
36989;SDS011;22898;52.102;5.776;2023-07-31T07:22:14;2.25;;;1.40;;
36989;SDS011;22898;52.102;5.776;2023-07-31T07:24:40;1.13;;;0.88;;
36989;SDS011;22898;52.102;5.776;2023-07-31T07:27:06;0.98;;;0.70;;
36989;SDS011;22898;52.102;5.776;2023-07-31T07:29:33;0.75;;;0.75;;
36989;SDS011;22898;52.102;5.776;2023-07-31T07:31:59;2.75;;;0.70;;
36989;SDS011;22898;52.102;5.776;2023-07-31T07:34:26;0.90;;;0.60;;
36989;SDS011;22898;52.102;5.776;2023-07-31T07:36:52;1.58;;;0.80;;
36989;SDS011;22898;52.102;5.776;2023-07-31T07:39:17;1.83;;;0.90;;
36989;SDS011;22898;52.102;5.776;2023-07-31T07:41:43;0.60;;;0.60;;
36989;SDS011;22898;52.102;5.776;2023-07-31T07:44:08;0.80;;;0.80;;
36989;SDS011;22898;52.102;5.776;2023-07-31T07:46:34;0.90;;;0.70;;
36989;SDS011;22898;52.102;5.776;2023-07-31T07:49:00;1.33;;;0.80;;
36989;SDS011;22898;52.102;5.776;2023-07-31T07:51:25;0.60;;;0.60;;
36989;SDS011;22898;52.102;5.776;2023-07-31T07:53:51;2.00;;;0.85;;
36989;SDS011;22898;52.102;5.776;2023-07-31T07:56:16;0.90;;;0.80;;
36989;SDS011;22898;52.102;5.776;2023-07-31T07:58:42;0.50;;;0.50;;
36989;SDS011;22898;52.102;5.776;2023-07-31T08:01:07;1.65;;;0.90;;
36989;SDS011;22898;52.102;5.776;2023-07-31T08:03:33;0.90;;;0.85;;
36989;SDS011;22898;52.102;5.776;2023-07-31T08:05:59;0.95;;;0.85;;
36989;SDS011;22898;52.102;5.776;2023-07-31T08:08:25;1.13;;;0.95;;
36989;SDS011;22898;52.102;5.776;2023-07-31T08:10:51;1.13;;;1.02;;
36989;SDS011;22898;52.102;5.776;2023-07-31T08:13:17;1.02;;;0.77;;
36989;SDS011;22898;52.102;5.776;2023-07-31T08:15:42;1.65;;;0.77;;
36989;SDS011;22898;52.102;5.776;2023-07-31T08:18:08;1.92;;;1.23;;
36989;SDS011;22898;52.102;5.776;2023-07-31T08:20:34;1.05;;;0.90;;
36989;SDS011;22898;52.102;5.776;2023-07-31T08:23:00;1.52;;;1.05;;
36989;SDS011;22898;52.102;5.776;2023-07-31T08:25:25;0.88;;;0.65;;
36989;SDS011;22898;52.102;5.776;2023-07-31T08:27:51;1.88;;;1.17;;
36989;SDS011;22898;52.102;5.776;2023-07-31T08:30:18;3.05;;;2.05;;
36989;SDS011;22898;52.102;5.776;2023-07-31T08:32:44;1.02;;;0.93;;
36989;SDS011;22898;52.102;5.776;2023-07-31T08:35:10;0.98;;;0.98;;
36989;SDS011;22898;52.102;5.776;2023-07-31T08:37:35;1.77;;;0.88;;
36989;SDS011;22898;52.102;5.776;2023-07-31T08:40:03;0.85;;;0.82;;
36989;SDS011;22898;52.102;5.776;2023-07-31T08:42:29;0.75;;;0.73;;
36989;SDS011;22898;52.102;5.776;2023-07-31T08:44:56;1.75;;;1.27;;
36989;SDS011;22898;52.102;5.776;2023-07-31T08:47:22;1.70;;;1.08;;
36989;SDS011;22898;52.102;5.776;2023-07-31T08:49:49;0.75;;;0.70;;
36989;SDS011;22898;52.102;5.776;2023-07-31T08:52:16;0.80;;;0.80;;
36989;SDS011;22898;52.102;5.776;2023-07-31T08:54:42;2.80;;;0.80;;
36989;SDS011;22898;52.102;5.776;2023-07-31T08:57:07;0.95;;;0.95;;
36989;SDS011;22898;52.102;5.776;2023-07-31T08:59:34;0.80;;;0.80;;
36989;SDS011;22898;52.102;5.776;2023-07-31T09:02:03;1.45;;;0.90;;
36989;SDS011;22898;52.102;5.776;2023-07-31T09:04:32;0.82;;;0.70;;
36989;SDS011;22898;52.102;5.776;2023-07-31T09:07:02;0.88;;;0.88;;
36989;SDS011;22898;52.102;5.776;2023-07-31T09:09:29;0.63;;;0.63;;
36989;SDS011;22898;52.102;5.776;2023-07-31T09:11:57;0.70;;;0.70;;
36989;SDS011;22898;52.102;5.776;2023-07-31T09:14:23;0.50;;;0.50;;
36989;SDS011;22898;52.102;5.776;2023-07-31T09:16:56;0.90;;;0.90;;
36989;SDS011;22898;52.102;5.776;2023-07-31T09:19:29;0.70;;;0.70;;
36989;SDS011;22898;52.102;5.776;2023-07-31T09:21:58;1.15;;;1.02;;
36989;SDS011;22898;52.102;5.776;2023-07-31T09:24:25;0.95;;;0.88;;
36989;SDS011;22898;52.102;5.776;2023-07-31T09:26:53;0.60;;;0.60;;
36989;SDS011;22898;52.102;5.776;2023-07-31T09:29:20;1.17;;;1.08;;
36989;SDS011;22898;52.102;5.776;2023-07-31T09:31:46;1.00;;;0.85;;
36989;SDS011;22898;52.102;5.776;2023-07-31T09:34:11;0.95;;;0.88;;
36989;SDS011;22898;52.102;5.776;2023-07-31T09:36:48;1.00;;;0.90;;
36989;SDS011;22898;52.102;5.776;2023-07-31T09:39:15;0.93;;;0.80;;
36989;SDS011;22898;52.102;5.776;2023-07-31T09:41:42;0.70;;;0.52;;
36989;SDS011;22898;52.102;5.776;2023-07-31T09:44:10;0.80;;;0.80;;
36989;SDS011;22898;52.102;5.776;2023-07-31T09:46:36;1.85;;;1.05;;
36989;SDS011;22898;52.102;5.776;2023-07-31T09:51:34;1.30;;;1.13;;
36989;SDS011;22898;52.102;5.776;2023-07-31T09:54:03;3.15;;;1.65;;
36989;SDS011;22898;52.102;5.776;2023-07-31T09:56:34;3.13;;;1.20;;
36989;SDS011;22898;52.102;5.776;2023-07-31T09:59:01;1.02;;;1.00;;
36989;SDS011;22898;52.102;5.776;2023-07-31T10:01:29;1.55;;;1.13;;
36989;SDS011;22898;52.102;5.776;2023-07-31T10:03:54;1.50;;;1.40;;
36989;SDS011;22898;52.102;5.776;2023-07-31T10:06:22;2.25;;;1.33;;
36989;SDS011;22898;52.102;5.776;2023-07-31T10:08:49;3.13;;;1.38;;
36989;SDS011;22898;52.102;5.776;2023-07-31T10:11:17;3.72;;;1.58;;
36989;SDS011;22898;52.102;5.776;2023-07-31T10:13:44;2.33;;;1.58;;
36989;SDS011;22898;52.102;5.776;2023-07-31T10:16:10;3.17;;;2.17;;
36989;SDS011;22898;52.102;5.776;2023-07-31T10:18:38;4.72;;;1.60;;
36989;SDS011;22898;52.102;5.776;2023-07-31T10:21:04;1.35;;;1.25;;
36989;SDS011;22898;52.102;5.776;2023-07-31T10:23:31;1.85;;;1.60;;
36989;SDS011;22898;52.102;5.776;2023-07-31T10:25:57;1.58;;;1.25;;
36989;SDS011;22898;52.102;5.776;2023-07-31T10:28:25;2.30;;;1.95;;
36989;SDS011;22898;52.102;5.776;2023-07-31T10:30:52;2.05;;;1.85;;
36989;SDS011;22898;52.102;5.776;2023-07-31T10:33:18;1.98;;;1.65;;
36989;SDS011;22898;52.102;5.776;2023-07-31T10:35:46;8.82;;;2.20;;
36989;SDS011;22898;52.102;5.776;2023-07-31T10:38:13;2.30;;;1.67;;
36989;SDS011;22898;52.102;5.776;2023-07-31T10:40:39;2.45;;;2.13;;
36989;SDS011;22898;52.102;5.776;2023-07-31T10:43:05;4.45;;;1.60;;
36989;SDS011;22898;52.102;5.776;2023-07-31T10:45:41;3.05;;;1.90;;
36989;SDS011;22898;52.102;5.776;2023-07-31T10:48:14;4.43;;;1.88;;
36989;SDS011;22898;52.102;5.776;2023-07-31T10:53:37;3.28;;;1.70;;
36989;SDS011;22898;52.102;5.776;2023-07-31T10:56:06;1.90;;;1.38;;
36989;SDS011;22898;52.102;5.776;2023-07-31T10:58:37;9.18;;;2.50;;
36989;SDS011;22898;52.102;5.776;2023-07-31T11:01:04;2.03;;;1.50;;
36989;SDS011;22898;52.102;5.776;2023-07-31T11:03:44;2.45;;;1.83;;
36989;SDS011;22898;52.102;5.776;2023-07-31T11:06:12;2.78;;;1.85;;
36989;SDS011;22898;52.102;5.776;2023-07-31T11:08:48;1.90;;;1.50;;
36989;SDS011;22898;52.102;5.776;2023-07-31T11:11:16;2.20;;;1.83;;
36989;SDS011;22898;52.102;5.776;2023-07-31T11:13:46;1.80;;;1.55;;
36989;SDS011;22898;52.102;5.776;2023-07-31T11:16:17;3.58;;;1.75;;
36989;SDS011;22898;52.102;5.776;2023-07-31T11:18:47;2.55;;;1.83;;
36989;SDS011;22898;52.102;5.776;2023-07-31T11:21:23;1.92;;;1.52;;
36989;SDS011;22898;52.102;5.776;2023-07-31T11:23:51;1.50;;;1.40;;
36989;SDS011;22898;52.102;5.776;2023-07-31T11:26:17;2.85;;;1.50;;
36989;SDS011;22898;52.102;5.776;2023-07-31T11:28:46;2.30;;;1.35;;
36989;SDS011;22898;52.102;5.776;2023-07-31T11:31:13;2.97;;;1.95;;
36989;SDS011;22898;52.102;5.776;2023-07-31T11:33:39;1.77;;;1.10;;
36989;SDS011;22898;52.102;5.776;2023-07-31T11:36:04;1.30;;;1.20;;
36989;SDS011;22898;52.102;5.776;2023-07-31T11:38:31;1.55;;;1.20;;
36989;SDS011;22898;52.102;5.776;2023-07-31T11:41:02;1.58;;;1.17;;
36989;SDS011;22898;52.102;5.776;2023-07-31T11:43:28;2.70;;;1.52;;
36989;SDS011;22898;52.102;5.776;2023-07-31T11:45:56;2.22;;;1.30;;
36989;SDS011;22898;52.102;5.776;2023-07-31T11:48:29;3.58;;;1.27;;
36989;SDS011;22898;52.102;5.776;2023-07-31T11:50:59;1.85;;;1.23;;
36989;SDS011;22898;52.102;5.776;2023-07-31T11:53:34;1.42;;;0.90;;
36989;SDS011;22898;52.102;5.776;2023-07-31T11:56:10;1.85;;;1.17;;
36989;SDS011;22898;52.102;5.776;2023-07-31T11:58:38;2.05;;;1.48;;
36989;SDS011;22898;52.102;5.776;2023-07-31T12:01:04;0.88;;;0.88;;
36989;SDS011;22898;52.102;5.776;2023-07-31T12:03:31;1.40;;;1.30;;
36989;SDS011;22898;52.102;5.776;2023-07-31T12:05:58;2.30;;;1.60;;
36989;SDS011;22898;52.102;5.776;2023-07-31T12:08:24;2.20;;;1.60;;
36989;SDS011;22898;52.102;5.776;2023-07-31T12:10:51;1.58;;;1.45;;
36989;SDS011;22898;52.102;5.776;2023-07-31T12:13:25;1.90;;;1.30;;
36989;SDS011;22898;52.102;5.776;2023-07-31T12:15:58;2.55;;;1.45;;
36989;SDS011;22898;52.102;5.776;2023-07-31T12:18:26;2.30;;;1.70;;
36989;SDS011;22898;52.102;5.776;2023-07-31T12:20:56;2.33;;;1.70;;
36989;SDS011;22898;52.102;5.776;2023-07-31T12:23:27;2.47;;;1.80;;
36989;SDS011;22898;52.102;5.776;2023-07-31T12:26:11;1.92;;;1.33;;
36989;SDS011;22898;52.102;5.776;2023-07-31T12:28:42;2.13;;;1.50;;
36989;SDS011;22898;52.102;5.776;2023-07-31T12:31:09;3.38;;;1.85;;
36989;SDS011;22898;52.102;5.776;2023-07-31T12:33:37;1.42;;;1.20;;
36989;SDS011;22898;52.102;5.776;2023-07-31T12:36:08;1.85;;;1.27;;
36989;SDS011;22898;52.102;5.776;2023-07-31T12:38:36;4.32;;;1.75;;
36989;SDS011;22898;52.102;5.776;2023-07-31T12:41:01;1.33;;;1.13;;
36989;SDS011;22898;52.102;5.776;2023-07-31T12:43:27;1.42;;;1.23;;
36989;SDS011;22898;52.102;5.776;2023-07-31T12:45:53;1.85;;;1.17;;
36989;SDS011;22898;52.102;5.776;2023-07-31T12:48:19;1.48;;;1.38;;
36989;SDS011;22898;52.102;5.776;2023-07-31T12:50:45;1.13;;;1.00;;
36989;SDS011;22898;52.102;5.776;2023-07-31T12:53:10;1.30;;;1.20;;
36989;SDS011;22898;52.102;5.776;2023-07-31T12:55:36;1.40;;;1.30;;
36989;SDS011;22898;52.102;5.776;2023-07-31T12:58:02;3.65;;;1.67;;
36989;SDS011;22898;52.102;5.776;2023-07-31T13:00:27;1.13;;;1.05;;
36989;SDS011;22898;52.102;5.776;2023-07-31T13:02:53;5.40;;;1.50;;
36989;SDS011;22898;52.102;5.776;2023-07-31T13:05:19;1.63;;;1.38;;
36989;SDS011;22898;52.102;5.776;2023-07-31T13:07:46;1.27;;;1.17;;
36989;SDS011;22898;52.102;5.776;2023-07-31T13:10:12;1.65;;;1.33;;
36989;SDS011;22898;52.102;5.776;2023-07-31T13:12:38;1.95;;;1.60;;
36989;SDS011;22898;52.102;5.776;2023-07-31T13:15:04;2.40;;;1.88;;
36989;SDS011;22898;52.102;5.776;2023-07-31T13:17:31;2.45;;;1.48;;
36989;SDS011;22898;52.102;5.776;2023-07-31T13:19:57;3.55;;;1.70;;
36989;SDS011;22898;52.102;5.776;2023-07-31T13:22:23;2.08;;;1.75;;
36989;SDS011;22898;52.102;5.776;2023-07-31T13:24:49;1.50;;;1.40;;
36989;SDS011;22898;52.102;5.776;2023-07-31T13:27:14;2.47;;;1.80;;
36989;SDS011;22898;52.102;5.776;2023-07-31T13:29:49;1.73;;;1.63;;
36989;SDS011;22898;52.102;5.776;2023-07-31T13:32:18;2.67;;;1.70;;
36989;SDS011;22898;52.102;5.776;2023-07-31T13:34:46;2.45;;;1.50;;
36989;SDS011;22898;52.102;5.776;2023-07-31T13:37:12;2.00;;;1.77;;
36989;SDS011;22898;52.102;5.776;2023-07-31T13:39:38;1.92;;;1.52;;
36989;SDS011;22898;52.102;5.776;2023-07-31T13:42:04;1.77;;;1.58;;
36989;SDS011;22898;52.102;5.776;2023-07-31T13:44:36;2.75;;;2.22;;
36989;SDS011;22898;52.102;5.776;2023-07-31T13:47:05;3.10;;;1.52;;
36989;SDS011;22898;52.102;5.776;2023-07-31T13:49:32;1.50;;;1.25;;
36989;SDS011;22898;52.102;5.776;2023-07-31T13:51:58;2.00;;;1.73;;
36989;SDS011;22898;52.102;5.776;2023-07-31T13:54:23;2.13;;;1.40;;
36989;SDS011;22898;52.102;5.776;2023-07-31T13:56:50;3.35;;;1.65;;
36989;SDS011;22898;52.102;5.776;2023-07-31T13:59:16;2.03;;;1.40;;
36989;SDS011;22898;52.102;5.776;2023-07-31T14:01:43;4.88;;;1.80;;
36989;SDS011;22898;52.102;5.776;2023-07-31T14:04:09;2.28;;;1.63;;
36989;SDS011;22898;52.102;5.776;2023-07-31T14:06:35;3.17;;;1.85;;
36989;SDS011;22898;52.102;5.776;2023-07-31T14:09:00;2.88;;;1.55;;
36989;SDS011;22898;52.102;5.776;2023-07-31T14:11:27;2.10;;;1.55;;
36989;SDS011;22898;52.102;5.776;2023-07-31T14:13:53;2.55;;;1.48;;
36989;SDS011;22898;52.102;5.776;2023-07-31T14:16:19;2.72;;;1.85;;
36989;SDS011;22898;52.102;5.776;2023-07-31T14:18:44;1.30;;;1.20;;
36989;SDS011;22898;52.102;5.776;2023-07-31T14:21:13;1.98;;;1.60;;
36989;SDS011;22898;52.102;5.776;2023-07-31T14:23:39;2.05;;;1.67;;
36989;SDS011;22898;52.102;5.776;2023-07-31T14:26:04;2.85;;;1.58;;
36989;SDS011;22898;52.102;5.776;2023-07-31T14:28:31;3.00;;;1.92;;
36989;SDS011;22898;52.102;5.776;2023-07-31T14:30:57;2.47;;;1.70;;
36989;SDS011;22898;52.102;5.776;2023-07-31T14:33:23;2.67;;;1.92;;
36989;SDS011;22898;52.102;5.776;2023-07-31T14:35:48;2.88;;;1.90;;
36989;SDS011;22898;52.102;5.776;2023-07-31T14:38:14;2.58;;;1.50;;
36989;SDS011;22898;52.102;5.776;2023-07-31T14:40:40;3.75;;;2.38;;
36989;SDS011;22898;52.102;5.776;2023-07-31T14:43:05;2.40;;;1.83;;
36989;SDS011;22898;52.102;5.776;2023-07-31T14:45:31;2.30;;;1.65;;
36989;SDS011;22898;52.102;5.776;2023-07-31T14:47:57;3.42;;;2.50;;
36989;SDS011;22898;52.102;5.776;2023-07-31T14:50:22;3.03;;;1.95;;
36989;SDS011;22898;52.102;5.776;2023-07-31T14:52:50;2.97;;;1.50;;